• Join FlightAware (Why Join?)
  • Login
  • US Flag 
05:25PM EST


 

Airport Tracker/Info


-or-


 

Live Flight TrackerFlight Track Log ✈ N23123 ✈ 21-Jun-2014 ✈ KELM - KBGM

Flight Track Log - Related Links

Times and Time Zones

All times are in EDT time to prevent confusion due to time zone crossing. See the N23123 flight status page for this flight to view local times or setup timezone preferences in your user account.

Time Position Orientation Groundspeed Altitude Reporting Facility
EDT Latitude Longitude Course Direction KTS MPH feet Rate Location/Type
11:05AM 42.1667 -76.4996 84° East  Level FlightAware Approximate
11:06AM 42.1703 -76.4518 84° East  Level FlightAware Approximate
11:07AM 42.1739 -76.4040 84° East  Level FlightAware Approximate
11:08AM 42.1775 -76.3561 84° East  Level FlightAware Approximate
11:09AM 42.1811 -76.3083 84° East  Level FlightAware Approximate
11:10AM 42.1846 -76.2604 84° East  Level FlightAware Approximate
11:11AM 42.1882 -76.2125 84° East  Level FlightAware Approximate
11:12AM 42.1917 -76.1647 84° East  Level FlightAware Approximate
11:13AM 42.1952 -76.1168 84° East  Level FlightAware Approximate
11:14AM 42.1986 -76.0689 84° East  Level FlightAware Approximate
11:15AM 42.2000 -76.0209 90° East  Level FlightAware Approximate
11:16AM 42.2000 -75.9728 90° East  Level FlightAware Approximate
11:17AM 42.2000 -75.9667 90° East  Level FlightAware Approximate
11:18AM 42.2084 -75.9796 90° East  Level Estimated
11:19AM 42.2084 -75.9796 90° East  Level Estimated
11:20AM 42.2084 -75.9796 90° East  Level Estimated
11:21AM 42.2084 -75.9796 90° East  Level Estimated
11:22AM 42.2084 -75.9796 90° East  Level Estimated
11:23AM 42.2084 -75.9796 90° East  Level Estimated
11:24AM 42.2084 -75.9796 90° East  Level Estimated
11:25AM 42.2084 -75.9796 90° East  Level Estimated
11:26AM 42.2084 -75.9796 90° East  Level Estimated
11:27AM 42.2084 -75.9796 90° East  Level Estimated
11:28AM 42.2084 -75.9796 90° East  Level Estimated
11:29AM 42.2084 -75.9796 90° East  Level Estimated
11:30AM 42.2084 -75.9796 90° East  Level Estimated
11:31AM 42.2084 -75.9796 90° East  Level Estimated
11:32AM 42.2084 -75.9796 90° East  Level Estimated